Time;durP1;ratioP1;P1;durP2;ratioP2;P2;SDS_P1;SDS_P2;PMS_P1;PMS_P2;Temp;Humidity;BMP_temperature;BMP_pressure;BME280_temperature;BME280_humidity;BME280_pressure;Samples;Min_cycle;Max_cycle;Signal;HPM_P1;HPM_P2
2021/07/15 00:01:09;;;;;;;;;;;;;;;;;;5042640;28;19928;-89
2021/07/15 00:03:39;;;;;;;;;;;;;;;;;;5046313;28;19924;-90
2021/07/15 00:06:07;;;;;;;;;;;;;;;;;;5063932;28;19987;-90
2021/07/15 00:08:35;;;;;;;;;;;;;;;;;;5086537;28;19984;-88
2021/07/15 00:11:05;;;;;;;;;;;;;;;;;;5072451;28;19919;-89
2021/07/15 00:13:34;;;;;;;;;;;;;;;;;;5050263;28;19924;-88
2021/07/15 00:16:03;;;;;;;;;;;;;;;;;;5035043;28;19924;-89
2021/07/15 00:18:36;;;;;;;;;;;;;;;;;;5044843;28;19936;-87
2021/07/15 00:21:07;;;;;;;;;;;;;;;;;;5059476;28;20888;-88
2021/07/15 00:23:36;;;;;;;;;;;;;;;;;;5040230;28;19932;-88
2021/07/15 00:26:13;;;;;;;;;;;;;;;;;;5049821;28;19924;-87
2021/07/15 00:28:42;;;;;;;;;;;;;;;;;;5036930;28;19925;-89
2021/07/15 00:31:10;;;;;;;;;;;;;;;;;;5056551;28;19928;-89
2021/07/15 00:33:45;;;;;;;;;;;;;;;;;;5073358;28;19924;-87
2021/07/15 00:36:15;;;;;;;;;;;;;;;;;;5045427;28;20393;-87
2021/07/15 00:38:43;;;;;;;;;;;;;;;;;;5048725;28;20392;-87
2021/07/15 00:41:11;;;;;;;;;;;;;;;;;;5050490;28;20302;-87
2021/07/15 00:43:40;;;;;;;;;;;;;;;;;;5030661;28;19933;-89
2021/07/15 00:46:08;;;;;;;;;;;;;;;;;;5047823;28;20377;-87
2021/07/15 00:48:37;;;;;;;;;;;;;;;;;;5036908;28;19924;-89
2021/07/15 00:51:05;;;;;;;;;;;;;;;;;;5056036;28;19932;-88
2021/07/15 00:53:35;;;;;;;;;;;;;;;;;;5056309;28;19929;-89
2021/07/15 00:56:06;;;;;;;;;;;;;;;;;;5045621;28;19947;-90
2021/07/15 00:58:37;;;;;;;;;;;;;;;;;;5038616;28;19925;-88
2021/07/15 01:01:06;;;;;;;;;;;;;;;;;;5045892;28;19955;-88
2021/07/15 01:03:35;;;;;;;;;;;;;;;;;;5046402;28;19939;-87
2021/07/15 01:06:03;;;;;;;;;;;;;;;;;;5052185;28;19936;-89
2021/07/15 01:08:32;;;;;;;;;;;;;;;;;;5067542;28;20405;-87
2021/07/15 01:11:02;;;;;;;;;;;;;;;;;;5060056;28;19931;-87
2021/07/15 01:13:36;;;;;;;;;;;;;;;;;;5040245;28;19939;-88
2021/07/15 01:16:07;;;;;;;;;;;;;;;;;;5064698;28;19936;-83
2021/07/15 01:18:44;;;;;;;;;;;;;;;;;;5046818;28;19925;-85
2021/07/15 01:21:16;;;;;;;;;;;;;;;;;;5048019;28;19929;-86
2021/07/15 01:24:06;;;;;;;;;;;;;;;;;;5059107;28;20456;-85
2021/07/15 01:26:45;;;;;;;;;;;;;;;;;;5013220;28;19924;-87
2021/07/15 01:29:18;;;;;;;;;;;;;;;;;;5032117;28;19939;-85
2021/07/15 01:31:48;;;;;;;;;;;;;;;;;;5050632;28;19931;-85
2021/07/15 01:34:17;;;;;;;;;;;;;;;;;;5047445;28;20394;-85
2021/07/15 01:36:47;;;;;;;;;;;;;;;;;;5052102;28;19924;-86
2021/07/15 01:39:15;;;;;;;;;;;;;;;;;;5064644;28;20011;-87
2021/07/15 01:41:45;;;;;;;;;;;;;;;;;;5031521;28;19928;-87
2021/07/15 01:44:15;;;;;;;;;;;;;;;;;;5041759;28;19928;-86
2021/07/15 01:46:44;;;;;;;;;;;;;;;;;;5045593;28;19932;-86
2021/07/15 01:49:13;;;;;;;;;;;;;;;;;;5067217;28;20591;-88
2021/07/15 01:51:42;;;;;;;;;;;;;;;;;;5054805;28;19931;-88
2021/07/15 01:54:10;;;;;;;;;;;;;;;;;;5037823;28;19924;-90
2021/07/15 01:56:39;;;;;;;;;;;;;;;;;;5058119;28;19939;-88
2021/07/15 01:59:07;;;;;;;;;;;;;;;;;;5048554;28;19925;-87
2021/07/15 02:01:35;;;;;;;;;;;;;;;;;;5065247;28;19924;-87
2021/07/15 02:04:04;;;;;;;;;;;;;;;;;;5049433;28;19932;-90
2021/07/15 02:06:35;;;;;;;;;;;;;;;;;;5033892;28;19931;-86
2021/07/15 02:09:06;;;;;;;;;;;;;;;;;;5047667;28;19928;-88
2021/07/15 02:11:34;;;;;;;;;;;;;;;;;;5039418;28;19935;-87
2021/07/15 02:14:03;;;;;;;;;;;;;;;;;;5051179;28;19994;-87
2021/07/15 02:16:32;;;;;;;;;;;;;;;;;;5049572;28;19925;-88
2021/07/15 02:19:01;;;;;;;;;;;;;;;;;;5062156;28;20287;-87
2021/07/15 02:21:29;;;;;;;;;;;;;;;;;;5063918;28;22094;-89
2021/07/15 02:23:59;;;;;;;;;;;;;;;;;;5045160;28;19924;-85
2021/07/15 02:26:28;;;;;;;;;;;;;;;;;;5048795;28;19925;-86
2021/07/15 02:28:56;;;;;;;;;;;;;;;;;;5063610;28;19925;-88
2021/07/15 02:31:26;;;;;;;;;;;;;;;;;;5047971;28;19925;-89
2021/07/15 02:33:59;;;;;;;;;;;;;;;;;;5047704;28;20272;-89
2021/07/15 02:36:27;;;;;;;;;;;;;;;;;;5047831;28;19935;-89
2021/07/15 02:39:01;;;;;;;;;;;;;;;;;;5049195;28;20325;-84
2021/07/15 02:41:29;;;;;;;;;;;;;;;;;;5062660;28;19947;-82
2021/07/15 02:43:57;;;;;;;;;;;;;;;;;;5042571;28;19924;-85
2021/07/15 02:46:26;;;;;;;;;;;;;;;;;;5039346;28;20314;-84
2021/07/15 02:48:54;;;;;;;;;;;;;;;;;;5066513;28;19932;-86
2021/07/15 02:51:24;;;;;;;;;;;;;;;;;;5052321;28;19931;-90
2021/07/15 02:53:52;;;;;;;;;;;;;;;;;;5051112;28;19940;-85
2021/07/15 02:56:24;;;;;;;;;;;;;;;;;;5049844;28;19932;-89
2021/07/15 02:58:55;;;;;;;;;;;;;;;;;;5057556;28;19925;-85
2021/07/15 03:01:23;;;;;;;;;;;;;;;;;;5062787;28;19928;-88
2021/07/15 03:03:53;;;;;;;;;;;;;;;;;;5087531;28;19912;-91
2021/07/15 03:06:23;;;;;;;;;;;;;;;;;;5073372;28;19932;-91
2021/07/15 03:08:51;;;;;;;;;;;;;;;;;;5057715;28;19939;-88
2021/07/15 03:11:20;;;;;;;;;;;;;;;;;;5045183;28;20301;-85
2021/07/15 03:13:49;;;;;;;;;;;;;;;;;;5044284;28;19935;-87
2021/07/15 03:16:22;;;;;;;;;;;;;;;;;;5053821;28;19990;-83
2021/07/15 03:18:50;;;;;;;;;;;;;;;;;;5039299;28;19947;-83
2021/07/15 03:21:18;;;;;;;;;;;;;;;;;;5032419;28;20309;-86
2021/07/15 03:23:47;;;;;;;;;;;;;;;;;;5042601;28;19928;-88
2021/07/15 03:26:15;;;;;;;;;;;;;;;;;;5044742;28;19928;-86
2021/07/15 03:28:43;;;;;;;;;;;;;;;;;;5042516;28;19943;-88
2021/07/15 03:31:13;;;;;;;;;;;;;;;;;;5050055;28;19940;-89
2021/07/15 03:33:41;;;;;;;;;;;;;;;;;;5040593;28;19932;-87
2021/07/15 03:36:10;;;;;;;;;;;;;;;;;;5045129;28;20409;-86
2021/07/15 03:38:39;;;;;;;;;;;;;;;;;;5044640;28;19924;-88
2021/07/15 03:41:07;;;;;;;;;;;;;;;;;;5047847;28;19995;-86
2021/07/15 03:43:36;;;;;;;;;;;;;;;;;;5052707;28;19925;-86
2021/07/15 03:46:04;;;;;;;;;;;;;;;;;;5055582;28;19924;-88
2021/07/15 03:48:34;;;;;;;;;;;;;;;;;;5065714;28;19935;-87
2021/07/15 03:51:03;;;;;;;;;;;;;;;;;;5070311;28;19928;-88
2021/07/15 03:53:32;;;;;;;;;;;;;;;;;;5048413;28;19924;-88
2021/07/15 03:56:01;;;;;;;;;;;;;;;;;;5049014;28;19931;-88
2021/07/15 03:58:29;;;;;;;;;;;;;;;;;;5054303;28;22934;-85
2021/07/15 04:00:57;;;;;;;;;;;;;;;;;;5067349;28;19933;-86
2021/07/15 04:03:26;;;;;;;;;;;;;;;;;;5053730;28;19939;-81
2021/07/15 04:05:55;;;;;;;;;;;;;;;;;;5047639;28;19924;-81
2021/07/15 04:08:24;;;;;;;;;;;;;;;;;;5063126;28;19933;-88
2021/07/15 04:10:54;;;;;;;;;;;;;;;;;;5053963;28;19924;-87
2021/07/15 04:13:24;;;;;;;;;;;;;;;;;;5072997;28;19936;-86
2021/07/15 04:15:57;;;;;;;;;;;;;;;;;;5080820;28;19924;-86
2021/07/15 04:18:28;;;;;;;;;;;;;;;;;;5065517;28;20283;-85
2021/07/15 04:20:57;;;;;;;;;;;;;;;;;;5046794;28;19935;-83
2021/07/15 04:23:26;;;;;;;;;;;;;;;;;;5037262;28;19935;-82
2021/07/15 04:25:54;;;;;;;;;;;;;;;;;;5032868;28;19929;-85
2021/07/15 04:28:22;;;;;;;;;;;;;;;;;;5048955;28;19932;-84
2021/07/15 04:30:52;;;;;;;;;;;;;;;;;;5054976;28;19928;-88
2021/07/15 04:33:20;;;;;;;;;;;;;;;;;;5061091;28;19925;-88
2021/07/15 04:35:48;;;;;;;;;;;;;;;;;;5043825;28;19924;-90
2021/07/15 04:38:18;;;;;;;;;;;;;;;;;;5048687;28;19925;-89
2021/07/15 04:40:46;;;;;;;;;;;;;;;;;;5043375;28;19929;-90
2021/07/15 04:43:14;;;;;;;;;;;;;;;;;;5066991;28;19924;-89
2021/07/15 04:45:44;;;;;;;;;;;;;;;;;;5046408;28;20301;-88
2021/07/15 04:48:18;;;;;;;;;;;;;;;;;;5047827;28;19924;-88
2021/07/15 04:50:47;;;;;;;;;;;;;;;;;;5040298;28;19928;-89
2021/07/15 04:53:16;;;;;;;;;;;;;;;;;;5042275;28;19931;-89
2021/07/15 04:55:46;;;;;;;;;;;;;;;;;;5044103;28;19935;-90
2021/07/15 04:58:15;;;;;;;;;;;;;;;;;;5044244;28;19924;-89
2021/07/15 05:00:43;;;;;;;;;;;;;;;;;;5051176;28;19925;-90
2021/07/15 05:03:14;;;;;;;;;;;;;;;;;;5051988;28;19940;-89
2021/07/15 05:05:43;;;;;;;;;;;;;;;;;;5058412;28;21314;-90
2021/07/15 05:08:11;;;;;;;;;;;;;;;;;;5035184;28;19939;-91
2021/07/15 05:10:39;;;;;;;;;;;;;;;;;;5052966;28;19925;-90
2021/07/15 05:13:09;;;;;;;;;;;;;;;;;;5051876;28;20322;-90
2021/07/15 05:15:38;;;;;;;;;;;;;;;;;;5051426;28;19925;-90
2021/07/15 05:18:06;;;;;;;;;;;;;;;;;;5054952;28;19928;-90
2021/07/15 05:20:35;;;;;;;;;;;;;;;;;;5047370;28;19924;-90
2021/07/15 05:23:03;;;;;;;;;;;;;;;;;;5045569;28;20302;-87
2021/07/15 05:25:31;;;;;;;;;;;;;;;;;;5051035;28;20378;-85
2021/07/15 05:27:59;;;;;;;;;;;;;;;;;;5041585;28;19924;-87
2021/07/15 05:30:29;;;;;;;;;;;;;;;;;;5040038;28;19931;-90
2021/07/15 05:32:58;;;;;;;;;;;;;;;;;;5062463;28;19925;-89
2021/07/15 05:35:26;;;;;;;;;;;;;;;;;;5061248;28;19937;-90
2021/07/15 05:37:55;;;;;;;;;;;;;;;;;;5041452;28;19924;-90
2021/07/15 05:40:23;;;;;;;;;;;;;;;;;;5036189;28;19924;-86
2021/07/15 05:42:51;;;;;;;;;;;;;;;;;;5034552;28;19948;-88
2021/07/15 05:45:19;;;;;;;;;;;;;;;;;;5034673;28;19931;-88
2021/07/15 05:47:49;;;;;;;;;;;;;;;;;;5050887;28;20306;-88
2021/07/15 05:50:18;;;;;;;;;;;;;;;;;;5057310;28;19924;-89
2021/07/15 05:52:46;;;;;;;;;;;;;;;;;;5049635;28;20298;-87
2021/07/15 05:55:14;;;;;;;;;;;;;;;;;;5040359;28;19931;-88
2021/07/15 05:57:42;;;;;;;;;;;;;;;;;;5038708;28;19929;-89
2021/07/15 06:00:12;;;;;;;;;;;;;;;;;;5067330;28;19932;-87
2021/07/15 06:02:40;;;;;;;;;;;;;;;;;;5068963;28;19923;-91
2021/07/15 06:05:28;;;;;;;;;;;;;;;;;;5056726;28;19913;-89
2021/07/15 06:07:56;;;;;;;;;;;;;;;;;;5054239;28;20310;-89
2021/07/15 06:10:25;;;;;;;;;;;;;;;;;;5049042;28;19933;-88
2021/07/15 06:12:53;;;;;;;;;;;;;;;;;;5049250;28;19924;-88
2021/07/15 06:15:21;;;;;;;;;;;;;;;;;;5062399;28;19924;-89
2021/07/15 06:17:50;;;;;;;;;;;;;;;;;;5052031;28;20274;-86
2021/07/15 06:20:22;;;;;;;;;;;;;;;;;;5028874;28;19932;-86
2021/07/15 06:22:51;;;;;;;;;;;;;;;;;;5046619;28;19924;-88
2021/07/15 06:25:20;;;;;;;;;;;;;;;;;;5050802;28;19929;-88
2021/07/15 06:27:48;;;;;;;;;;;;;;;;;;5047957;28;19929;-85
2021/07/15 06:30:16;;;;;;;;;;;;;;;;;;5054759;28;19939;-88
2021/07/15 06:32:44;;;;;;;;;;;;;;;;;;5055587;28;19924;-86
2021/07/15 06:35:15;;;;;;;;;;;;;;;;;;5062591;28;19925;-83
2021/07/15 06:37:43;;;;;;;;;;;;;;;;;;5056289;28;19925;-84
2021/07/15 06:40:13;;;;;;;;;;;;;;;;;;5052580;28;19932;-86
2021/07/15 06:42:41;;;;;;;;;;;;;;;;;;5079753;28;19924;-86
2021/07/15 06:45:11;;;;;;;;;;;;;;;;;;5054953;28;19939;-89
2021/07/15 06:47:39;;;;;;;;;;;;;;;;;;5040986;28;19925;-87
2021/07/15 06:50:09;;;;;;;;;;;;;;;;;;5051002;28;19939;-89
2021/07/15 06:52:37;;;;;;;;;;;;;;;;;;5043586;28;19928;-85
2021/07/15 06:55:06;;;;;;;;;;;;;;;;;;5038332;28;20293;-84
2021/07/15 06:57:36;;;;;;;;;;;;;;;;;;5053831;28;19925;-84
2021/07/15 07:00:07;;;;;;;;;;;;;;;;;;5073667;28;19951;-87
2021/07/15 07:02:39;;;;;;;;;;;;;;;;;;5050466;28;20329;-86
2021/07/15 07:05:08;;;;;;;;;;;;;;;;;;5056643;28;19943;-84
2021/07/15 07:07:36;;;;;;;;;;;;;;;;;;5052924;28;19932;-86
2021/07/15 07:10:05;;;;;;;;;;;;;;;;;;5064364;28;19932;-84
2021/07/15 07:12:34;;;;;;;;;;;;;;;;;;5049441;28;19932;-85
2021/07/15 07:15:04;;;;;;;;;;;;;;;;;;5058974;28;19951;-86
2021/07/15 07:17:32;;;;;;;;;;;;;;;;;;5055092;28;20381;-87
2021/07/15 07:20:00;;;;;;;;;;;;;;;;;;5041565;28;19931;-86
2021/07/15 07:22:28;;;;;;;;;;;;;;;;;;5034154;28;20386;-86
2021/07/15 07:24:57;;;;;;;;;;;;;;;;;;5052154;28;19924;-88
2021/07/15 07:27:25;;;;;;;;;;;;;;;;;;5051348;28;19924;-87
2021/07/15 07:29:53;;;;;;;;;;;;;;;;;;5039041;28;20497;-84
2021/07/15 07:32:23;;;;;;;;;;;;;;;;;;5040576;28;19931;-86
2021/07/15 07:34:51;;;;;;;;;;;;;;;;;;5042241;28;19940;-86
2021/07/15 07:37:19;;;;;;;;;;;;;;;;;;5044597;28;20373;-84
2021/07/15 07:39:48;;;;;;;;;;;;;;;;;;5057994;28;19931;-89
2021/07/15 07:42:16;;;;;;;;;;;;;;;;;;5039262;28;20134;-85
2021/07/15 07:44:44;;;;;;;;;;;;;;;;;;5037711;28;19932;-82
2021/07/15 07:47:12;;;;;;;;;;;;;;;;;;5055461;28;19956;-87
2021/07/15 07:49:42;;;;;;;;;;;;;;;;;;5041551;28;20394;-85
2021/07/15 07:52:10;;;;;;;;;;;;;;;;;;5054027;28;19932;-82
2021/07/15 07:54:39;;;;;;;;;;;;;;;;;;5042478;28;19931;-85
2021/07/15 07:57:09;;;;;;;;;;;;;;;;;;5069569;28;19924;-84
2021/07/15 07:59:38;;;;;;;;;;;;;;;;;;5056080;28;20377;-83
2021/07/15 08:02:06;;;;;;;;;;;;;;;;;;5041780;28;19932;-85
2021/07/15 08:04:35;;;;;;;;;;;;;;;;;;5069956;28;19950;-86
2021/07/15 08:07:08;;;;;;;;;;;;;;;;;;5050343;28;19939;-87
2021/07/15 08:09:43;;;;;;;;;;;;;;;;;;5054318;28;19947;-83
2021/07/15 08:12:13;;;;;;;;;;;;;;;;;;5050631;28;19939;-86
2021/07/15 08:14:41;;;;;;;;;;;;;;;;;;5076248;28;19932;-87
2021/07/15 08:17:09;;;;;;;;;;;;;;;;;;5054160;28;19928;-85
2021/07/15 08:19:38;;;;;;;;;;;;;;;;;;5053974;28;19987;-83
2021/07/15 08:22:08;;;;;;;;;;;;;;;;;;5058394;28;19928;-86
2021/07/15 08:24:36;;;;;;;;;;;;;;;;;;5057017;28;19936;-85
2021/07/15 08:27:04;;;;;;;;;;;;;;;;;;5062485;28;20386;-82
2021/07/15 08:29:33;;;;;;;;;;;;;;;;;;5040029;28;19929;-85
2021/07/15 08:32:01;;;;;;;;;;;;;;;;;;5042987;28;20306;-85
2021/07/15 08:34:29;;;;;;;;;;;;;;;;;;5047399;28;19936;-83
2021/07/15 08:36:58;;;;;;;;;;;;;;;;;;5037734;28;19924;-85
2021/07/15 08:39:27;;;;;;;;;;;;;;;;;;5053652;28;20042;-84
2021/07/15 08:41:56;;;;;;;;;;;;;;;;;;5047144;28;19943;-84
2021/07/15 08:44:25;;;;;;;;;;;;;;;;;;5053703;28;19925;-85
2021/07/15 08:46:53;;;;;;;;;;;;;;;;;;5051192;28;19925;-85
2021/07/15 08:49:22;;;;;;;;;;;;;;;;;;5040265;28;20318;-85
2021/07/15 08:51:50;;;;;;;;;;;;;;;;;;5029555;28;22143;-80
2021/07/15 08:54:18;;;;;;;;;;;;;;;;;;5043192;28;19924;-83
2021/07/15 08:56:47;;;;;;;;;;;;;;;;;;5051412;28;19924;-84
2021/07/15 08:59:16;;;;;;;;;;;;;;;;;;5059730;28;19912;-86
2021/07/15 09:01:45;;;;;;;;;;;;;;;;;;5060038;28;19908;-88
2021/07/15 09:04:13;;;;;;;;;;;;;;;;;;5065953;28;19924;-84
2021/07/15 09:06:42;;;;;;;;;;;;;;;;;;5047968;28;19932;-82
2021/07/15 09:09:11;;;;;;;;;;;;;;;;;;5031546;28;19951;-82
2021/07/15 09:11:39;;;;;;;;;;;;;;;;;;5049278;28;19935;-86
2021/07/15 09:14:13;;;;;;;;;;;;;;;;;;5048085;28;19928;-83
2021/07/15 09:16:48;;;;;;;;;;;;;;;;;;5073267;28;20381;-84
2021/07/15 09:19:16;;;;;;;;;;;;;;;;;;5045516;28;20302;-81
2021/07/15 09:21:45;;;;;;;;;;;;;;;;;;5055270;28;20386;-85
2021/07/15 09:24:27;;;;;;;;;;;;;;;;;;5052203;28;20420;-84
2021/07/15 09:26:55;;;;;;;;;;;;;;;;;;5069300;28;19947;-83
2021/07/15 09:29:26;;;;;;;;;;;;;;;;;;5064130;28;19932;-81
2021/07/15 09:31:55;;;;;;;;;;;;;;;;;;5047381;28;19925;-82
2021/07/15 09:34:24;;;;;;;;;;;;;;;;;;5040991;28;22793;-79
2021/07/15 09:36:54;;;;;;;;;;;;;;;;;;5050602;28;19948;-79
2021/07/15 09:39:23;;;;;;;;;;;;;;;;;;5036775;28;21925;-80
2021/07/15 09:42:08;;;;;;;;;;;;;;;;;;5058252;28;19929;-82
2021/07/15 09:44:38;;;;;;;;;;;;;;;;;;5055715;28;20406;-81
2021/07/15 09:47:06;;;;;;;;;;;;;;;;;;5053716;28;19924;-82
2021/07/15 09:49:35;;;;;;;;;;;;;;;;;;5067730;28;19931;-81
2021/07/15 09:52:04;;;;;;;;;;;;;;;;;;5055323;28;19932;-83
2021/07/15 09:54:32;;;;;;;;;;;;;;;;;;5054521;28;19932;-82
2021/07/15 09:57:01;;;;;;;;;;;;;;;;;;5049693;28;19924;-80
2021/07/15 09:59:29;;;;;;;;;;;;;;;;;;5053266;28;19932;-83
2021/07/15 10:01:58;;;;;;;;;;;;;;;;;;5069968;28;19931;-80
2021/07/15 10:04:28;;;;;;;;;;;;;;;;;;5033891;28;19924;-82
2021/07/15 10:06:58;;;;;;;;;;;;;;;;;;5073708;28;19925;-80
2021/07/15 10:09:27;;;;;;;;;;;;;;;;;;5054866;28;20298;-80
2021/07/15 10:11:58;;;;;;;;;;;;;;;;;;5039240;28;19931;-81
2021/07/15 10:14:34;;;;;;;;;;;;;;;;;;5058978;28;19924;-81
2021/07/15 10:17:04;;;;;;;;;;;;;;;;;;5040126;28;19929;-79
2021/07/15 10:19:32;;;;;;;;;;;;;;;;;;5038995;28;20404;-79
2021/07/15 10:22:01;;;;;;;;;;;;;;;;;;5049665;28;19924;-79
2021/07/15 10:24:29;;;;;;;;;;;;;;;;;;5063348;28;20374;-82
2021/07/15 10:26:58;;;;;;;;;;;;;;;;;;5062433;28;19925;-78
2021/07/15 10:29:27;;;;;;;;;;;;;;;;;;5054610;28;19924;-79
2021/07/15 10:31:55;;;;;;;;;;;;;;;;;;5056040;28;19925;-80
2021/07/15 10:34:25;;;;;;;;;;;;;;;;;;5060456;28;20398;-83
2021/07/15 10:37:06;;;;;;;;;;;;;;;;;;5066814;28;19924;-79
2021/07/15 10:39:36;;;;;;;;;;;;;;;;;;5039938;28;19935;-88
2021/07/15 10:42:04;;;;;;;;;;;;;;;;;;5073592;28;19939;-82
2021/07/15 10:44:32;;;;;;;;;;;;;;;;;;5057495;28;19928;-81
2021/07/15 10:47:00;;;;;;;;;;;;;;;;;;5046572;28;19925;-83
2021/07/15 10:49:30;;;;;;;;;;;;;;;;;;5049253;28;19939;-85
2021/07/15 10:52:01;;;;;;;;;;;;;;;;;;5042766;28;19932;-85
2021/07/15 10:54:29;;;;;;;;;;;;;;;;;;5050870;28;19952;-82
2021/07/15 10:56:57;;;;;;;;;;;;;;;;;;5045403;28;19925;-82
2021/07/15 10:59:27;;;;;;;;;;;;;;;;;;5058697;28;20127;-81
2021/07/15 11:01:58;;;;;;;;;;;;;;;;;;5041189;28;19924;-82
2021/07/15 11:04:39;;;;;;;;;;;;;;;;;;5057991;28;19939;-81
2021/07/15 11:07:15;;;;;;;;;;;;;;;;;;5064608;28;19924;-81
2021/07/15 11:09:44;;;;;;;;;;;;;;;;;;5045235;28;19939;-82
2021/07/15 11:12:35;;;;;;;;;;;;;;;;;;5072887;28;19935;-81
2021/07/15 11:15:06;;;;;;;;;;;;;;;;;;5048328;28;19952;-83
2021/07/15 11:17:34;;;;;;;;;;;;;;;;;;5056639;28;20310;-83
2021/07/15 11:20:09;;;;;;;;;;;;;;;;;;5071401;28;19925;-81
2021/07/15 11:22:38;;;;;;;;;;;;;;;;;;5069726;28;19936;-84
2021/07/15 11:25:08;;;;;;;;;;;;;;;;;;5059230;28;19932;-81
2021/07/15 11:27:40;;;;;;;;;;;;;;;;;;5049923;28;19924;-82
2021/07/15 11:30:10;;;;;;;;;;;;;;;;;;5054696;28;19939;-81
2021/07/15 11:32:38;;;;;;;;;;;;;;;;;;5060711;28;19925;-83
2021/07/15 11:35:23;;;;;;;;;;;;;;;;;;5040629;28;19932;-82
2021/07/15 11:38:10;;;;;;;;;;;;;;;;;;5048616;28;19928;-81
2021/07/15 11:40:43;;;;;;;;;;;;;;;;;;5040897;28;19967;-83
2021/07/15 11:43:14;;;;;;;;;;;;;;;;;;5070324;28;19939;-83
2021/07/15 11:45:58;;;;;;;;;;;;;;;;;;5055285;28;20309;-81
2021/07/15 11:49:02;;;;;;;;;;;;;;;;;;5046071;28;20108;-83
2021/07/15 11:51:33;;;;;;;;;;;;;;;;;;5046947;28;19924;-85
2021/07/15 11:54:21;;;;;;;;;;;;;;;;;;5052772;28;21460;-84
2021/07/15 11:56:50;;;;;;;;;;;;;;;;;;5085419;28;19927;-89
2021/07/15 11:59:36;;;;;;;;;;;;;;;;;;5072171;28;19915;-85
2021/07/15 12:02:05;;;;;;;;;;;;;;;;;;5074583;28;19932;-83
2021/07/15 12:04:53;;;;;;;;;;;;;;;;;;5040721;28;19924;-84
2021/07/15 12:07:22;;;;;;;;;;;;;;;;;;5050206;28;20289;-83
2021/07/15 12:09:51;;;;;;;;;;;;;;;;;;5043983;28;19932;-84
2021/07/15 12:12:20;;;;;;;;;;;;;;;;;;5068760;28;20365;-88
2021/07/15 12:14:53;;;;;;;;;;;;;;;;;;5068048;28;19935;-86
2021/07/15 12:17:21;;;;;;;;;;;;;;;;;;5078791;28;19925;-87
2021/07/15 12:19:53;;;;;;;;;;;;;;;;;;5045953;28;19936;-84
2021/07/15 12:22:23;;;;;;;;;;;;;;;;;;5047054;28;19944;-84
2021/07/15 12:25:06;;;;;;;;;;;;;;;;;;5041433;28;20286;-85
2021/07/15 12:27:38;;;;;;;;;;;;;;;;;;5042380;28;19932;-85
2021/07/15 12:30:07;;;;;;;;;;;;;;;;;;5075040;28;19925;-83
2021/07/15 12:32:36;;;;;;;;;;;;;;;;;;5053723;28;20335;-83
2021/07/15 12:35:12;;;;;;;;;;;;;;;;;;5050131;28;19975;-82
2021/07/15 12:37:42;;;;;;;;;;;;;;;;;;5050814;28;19931;-82
2021/07/15 12:40:11;;;;;;;;;;;;;;;;;;5041304;28;20585;-84
2021/07/15 12:42:41;;;;;;;;;;;;;;;;;;5057394;28;19924;-82
2021/07/15 12:45:17;;;;;;;;;;;;;;;;;;5037929;28;19932;-82
2021/07/15 12:47:58;;;;;;;;;;;;;;;;;;5057585;28;19935;-86
2021/07/15 12:50:26;;;;;;;;;;;;;;;;;;5054216;28;19932;-85
2021/07/15 12:53:09;;;;;;;;;;;;;;;;;;5059161;28;19929;-83
2021/07/15 12:55:38;;;;;;;;;;;;;;;;;;5086573;28;19924;-86
2021/07/15 12:58:06;;;;;;;;;;;;;;;;;;5068474;28;19912;-87
2021/07/15 13:00:37;;;;;;;;;;;;;;;;;;5059268;28;19932;-87
2021/07/15 13:03:10;;;;;;;;;;;;;;;;;;5054904;28;19925;-85
2021/07/15 13:05:45;;;;;;;;;;;;;;;;;;5038853;28;19925;-88
2021/07/15 13:08:24;;;;;;;;;;;;;;;;;;5054459;28;19932;-84
2021/07/15 13:16:24;;;;;;;;;;;;;;;;;;5059399;28;19929;-83
2021/07/15 13:18:54;;;;;;;;;;;;;;;;;;5041926;28;20111;-87
2021/07/15 13:21:26;;;;;;;;;;;;;;;;;;5065712;28;19924;-85
2021/07/15 13:24:03;;;;;;;;;;;;;;;;;;5060047;28;20088;-83
2021/07/15 13:26:32;;;;;;;;;;;;;;;;;;5048095;28;19932;-88
2021/07/15 13:29:08;;;;;;;;;;;;;;;;;;5043514;28;19925;-84
2021/07/15 13:31:38;;;;;;;;;;;;;;;;;;5054778;28;19925;-85
2021/07/15 13:34:09;;;;;;;;;;;;;;;;;;5057724;28;19924;-87
2021/07/15 13:36:49;;;;;;;;;;;;;;;;;;5055188;28;19958;-87
2021/07/15 13:39:37;;;;;;;;;;;;;;;;;;5045360;28;19940;-87
2021/07/15 13:42:11;;;;;;;;;;;;;;;;;;5052828;28;20382;-86
2021/07/15 13:44:42;;;;;;;;;;;;;;;;;;5058025;28;19925;-85
2021/07/15 13:47:10;;;;;;;;;;;;;;;;;;5050113;28;19946;-85
2021/07/15 13:49:39;;;;;;;;;;;;;;;;;;5055847;28;19924;-83
2021/07/15 13:52:11;;;;;;;;;;;;;;;;;;5055849;28;19924;-87
2021/07/15 13:54:46;;;;;;;;;;;;;;;;;;5048222;28;19928;-86
2021/07/15 13:57:26;;;;;;;;;;;;;;;;;;5056672;28;19925;-86
2021/07/15 13:59:56;;;;;;;;;;;;;;;;;;5059288;28;19932;-83
2021/07/15 14:02:27;;;;;;;;;;;;;;;;;;5049832;28;19924;-85
2021/07/15 14:04:57;;;;;;;;;;;;;;;;;;5057899;28;19925;-83
2021/07/15 14:07:26;;;;;;;;;;;;;;;;;;5053905;28;20278;-84
2021/07/15 14:10:04;;;;;;;;;;;;;;;;;;5066073;28;19932;-88
2021/07/15 14:12:34;;;;;;;;;;;;;;;;;;5040876;28;20158;-87
2021/07/15 14:15:03;;;;;;;;;;;;;;;;;;5054687;28;19931;-87
2021/07/15 14:17:31;;;;;;;;;;;;;;;;;;5055188;28;19925;-87
2021/07/15 14:20:02;;;;;;;;;;;;;;;;;;5063815;28;20305;-84
2021/07/15 14:22:31;;;;;;;;;;;;;;;;;;5039959;28;20191;-88
2021/07/15 14:25:04;;;;;;;;;;;;;;;;;;5055137;28;20306;-86
2021/07/15 14:27:34;;;;;;;;;;;;;;;;;;5066616;28;19932;-85
2021/07/15 14:30:05;;;;;;;;;;;;;;;;;;5082540;28;19929;-86
2021/07/15 14:32:37;;;;;;;;;;;;;;;;;;5054368;28;19947;-87
2021/07/15 14:35:07;;;;;;;;;;;;;;;;;;5054916;23;19933;-92
2021/07/15 14:37:35;;;;;;;;;;;;;;;;;;5020873;28;19925;-93
2021/07/15 14:40:04;;;;;;;;;;;;;;;;;;5053267;28;19932;-92
2021/07/15 14:42:34;;;;;;;;;;;;;;;;;;5047537;28;19925;-92
2021/07/15 14:45:02;;;;;;;;;;;;;;;;;;5023723;28;19926;-91
2021/07/15 14:47:30;;;;;;;;;;;;;;;;;;5011808;28;19925;-90
2021/07/15 14:49:58;;;;;;;;;;;;;;;;;;5038196;28;19925;-92
2021/07/15 14:52:27;;;;;;;;;;;;;;;;;;5041231;28;19927;-92
2021/07/15 14:54:55;;;;;;;;;;;;;;;;;;5039840;28;19925;-93
2021/07/15 14:57:24;;;;;;;;;;;;;;;;;;5047642;28;19933;-92
2021/07/15 14:59:53;;;;;;;;;;;;;;;;;;5040073;28;19916;-90
2021/07/15 15:02:21;;;;;;;;;;;;;;;;;;5033420;28;19940;-92
2021/07/15 15:04:50;;;;;;;;;;;;;;;;;;5032195;28;19909;-92
2021/07/15 15:07:18;;;;;;;;;;;;;;;;;;5039231;28;19922;-93
2021/07/15 15:09:46;;;;;;;;;;;;;;;;;;5042199;28;19910;-92
2021/07/15 15:12:14;;;;;;;;;;;;;;;;;;5068312;28;19914;-91
2021/07/15 15:14:43;;;;;;;;;;;;;;;;;;5056688;28;19929;-92
2021/07/15 15:17:12;;;;;;;;;;;;;;;;;;5042246;28;19921;-92
2021/07/15 15:19:40;;;;;;;;;;;;;;;;;;5046133;28;20004;-93
2021/07/15 15:22:09;;;;;;;;;;;;;;;;;;5028247;28;20132;-92
2021/07/15 15:24:37;;;;;;;;;;;;;;;;;;5038522;28;19936;-93
2021/07/15 15:27:05;;;;;;;;;;;;;;;;;;5049135;28;19947;-92
2021/07/15 15:29:33;;;;;;;;;;;;;;;;;;5053593;28;19919;-92
2021/07/15 15:32:03;;;;;;;;;;;;;;;;;;5041572;28;19932;-91
2021/07/15 15:34:33;;;;;;;;;;;;;;;;;;5040282;28;19948;-92
2021/07/15 15:37:01;;;;;;;;;;;;;;;;;;5031477;28;19913;-93
2021/07/15 15:39:29;;;;;;;;;;;;;;;;;;5028771;28;19914;-93
2021/07/15 15:41:58;;;;;;;;;;;;;;;;;;5034626;28;19925;-91
2021/07/15 15:44:26;;;;;;;;;;;;;;;;;;5035599;28;19922;-93
2021/07/15 15:47:06;;;;;;;;;;;;;;;;;;5032167;28;19921;-94
2021/07/15 15:49:36;;;;;;;;;;;;;;;;;;5033311;28;19940;-93
2021/07/15 15:52:04;;;;;;;;;;;;;;;;;;5035673;28;19933;-93
2021/07/15 15:54:33;;;;;;;;;;;;;;;;;;5035141;28;19920;-92
2021/07/15 15:57:01;;;;;;;;;;;;;;;;;;5037014;28;19925;-91
2021/07/15 15:59:29;;;;;;;;;;;;;;;;;;5034431;28;19936;-90
2021/07/15 16:01:57;;;;;;;;;;;;;;;;;;5041741;28;19916;-92
2021/07/15 16:04:27;;;;;;;;;;;;;;;;;;5036985;28;19988;-90
2021/07/15 16:06:57;;;;;;;;;;;;;;;;;;5034840;28;19914;-92
2021/07/15 16:09:26;;;;;;;;;;;;;;;;;;5016518;28;19910;-92
2021/07/15 16:11:54;;;;;;;;;;;;;;;;;;5038843;28;19909;-92
2021/07/15 16:14:25;;;;;;;;;;;;;;;;;;5053065;28;19920;-92
2021/07/15 16:16:53;;;;;;;;;;;;;;;;;;5019729;28;19929;-92
2021/07/15 16:19:22;;;;;;;;;;;;;;;;;;5019409;28;20301;-92
2021/07/15 16:21:50;;;;;;;;;;;;;;;;;;5010324;28;19940;-92
2021/07/15 16:24:21;;;;;;;;;;;;;;;;;;5009932;28;19929;-91
2021/07/15 16:26:57;;;;;;;;;;;;;;;;;;4996634;28;19932;-92
2021/07/15 16:29:26;;;;;;;;;;;;;;;;;;5008756;28;20370;-92
2021/07/15 16:31:58;;;;;;;;;;;;;;;;;;5011959;28;19926;-93
2021/07/15 16:34:27;;;;;;;;;;;;;;;;;;5012226;28;20132;-92
2021/07/15 16:36:55;;;;;;;;;;;;;;;;;;4993773;28;19926;-92
2021/07/15 16:39:25;;;;;;;;;;;;;;;;;;5007215;28;19942;-92
2021/07/15 16:41:54;;;;;;;;;;;;;;;;;;5013061;28;19925;-92
2021/07/15 16:44:23;;;;;;;;;;;;;;;;;;5016097;28;19942;-92
2021/07/15 16:46:51;;;;;;;;;;;;;;;;;;4997338;28;19933;-92
2021/07/15 16:49:19;;;;;;;;;;;;;;;;;;5020592;28;19940;-91
2021/07/15 16:51:47;;;;;;;;;;;;;;;;;;5035072;28;19956;-92
2021/07/15 16:54:16;;;;;;;;;;;;;;;;;;5035470;28;19926;-92
2021/07/15 16:56:45;;;;;;;;;;;;;;;;;;5021979;28;19932;-92
2021/07/15 16:59:13;;;;;;;;;;;;;;;;;;4995343;28;19926;-92
2021/07/15 17:01:42;;;;;;;;;;;;;;;;;;5003899;28;19926;-92
2021/07/15 17:04:10;;;;;;;;;;;;;;;;;;5009933;28;19933;-92
2021/07/15 17:06:47;;;;;;;;;;;;;;;;;;4988473;28;19925;-92
2021/07/15 17:09:15;;;;;;;;;;;;;;;;;;5015427;28;19925;-93
2021/07/15 17:11:44;;;;;;;;;;;;;;;;;;4999665;28;20304;-93